Time;durP1;ratioP1;P1;durP2;ratioP2;P2;SDS_P1;SDS_P2;PMS_P1;PMS_P2;Temp;Humidity;BMP_temperature;BMP_pressure;BME280_temperature;BME280_humidity;BME280_pressure;Samples;Min_cycle;Max_cycle;Signal;HPM_P1;HPM_P2
2022/01/13 00:02:02;;;;;;;143.07;25.48;;;;;;;6.40;69.62;104135.94;5245007;28;20409;-47
2022/01/13 00:04:35;;;;;;;149.48;24.38;;;;;;;6.38;69.70;104136.88;5248090;28;20418;-43
2022/01/13 00:07:09;;;;;;;151.35;24.38;;;;;;;6.37;69.77;104136.03;5248759;28;20401;-43
2022/01/13 00:09:44;;;;;;;146.90;24.95;;;;;;;6.37;69.61;104148.28;5251143;28;20454;-45
2022/01/13 00:12:19;;;;;;;138.38;24.20;;;;;;;6.37;69.64;104143.91;5247646;28;20919;-45
2022/01/13 00:18:00;;;;;;;157.88;25.17;;;;;;;6.46;69.63;104156.78;5248860;28;20456;-44
2022/01/13 00:20:58;;;;;;;156.37;25.50;;;;;;;6.49;69.51;104155.00;5246703;28;20446;-45
2022/01/13 00:23:42;;;;;;;130.52;22.83;;;;;;;6.46;69.72;104154.16;5248083;28;20418;-43
2022/01/13 00:26:21;;;;;;;165.15;25.73;;;;;;;6.44;69.64;104153.34;5245315;28;20460;-43
2022/01/13 00:28:55;;;;;;;138.67;26.13;;;;;;;6.45;69.66;104149.81;5242716;28;20465;-44
2022/01/13 00:31:32;;;;;;;181.90;29.42;;;;;;;6.47;69.70;104142.78;5237861;28;20412;-45
2022/01/13 00:34:07;;;;;;;162.85;26.08;;;;;;;6.49;69.65;104137.47;5242864;28;20406;-47
2022/01/13 00:36:41;;;;;;;173.10;28.85;;;;;;;6.54;69.52;104142.59;5244244;28;20429;-47
2022/01/13 00:39:14;;;;;;;176.75;27.83;;;;;;;6.57;69.57;104137.28;5246031;28;20414;-45
2022/01/13 00:41:48;;;;;;;155.60;28.35;;;;;;;6.56;69.53;104135.53;5251779;28;20755;-46
2022/01/13 00:44:21;;;;;;;179.75;28.33;;;;;;;6.57;69.66;104137.28;5243504;28;20405;-44
2022/01/13 00:46:58;;;;;;;137.18;26.13;;;;;;;6.61;69.45;104124.00;5249781;28;20410;-46
2022/01/13 00:49:30;;;;;;;159.38;26.15;;;;;;;6.63;69.37;104137.09;5246617;28;20417;-43
2022/01/13 00:52:03;;;;;;;194.38;30.50;;;;;;;6.63;69.65;104137.09;5247530;28;20460;-44
2022/01/13 00:54:36;;;;;;;170.27;27.08;;;;;;;6.67;69.52;104146.59;5246990;28;20410;-43
2022/01/13 00:57:10;;;;;;;160.85;27.52;;;;;;;6.69;69.50;104147.44;5241574;28;20499;-45
2022/01/13 00:59:42;;;;;;;166.80;26.48;;;;;;;6.67;69.57;104151.84;5247242;28;20418;-45
2022/01/13 01:02:15;;;;;;;174.45;28.35;;;;;;;6.66;69.69;104151.00;5238633;28;20781;-45
2022/01/13 01:04:47;;;;;;;149.38;27.35;;;;;;;6.68;69.67;104161.44;5248180;28;20422;-46
2022/01/13 01:07:19;;;;;;;160.68;26.73;;;;;;;6.69;69.55;104164.06;5242385;28;20424;-43
2022/01/13 01:09:51;;;;;;;159.68;25.10;;;;;;;6.73;69.44;104162.19;5247913;28;20402;-43
2022/01/13 01:12:25;;;;;;;170.32;27.80;;;;;;;6.78;69.49;104162.94;5252161;28;20463;-44
2022/01/13 01:14:58;;;;;;;159.63;26.50;;;;;;;6.83;69.44;104170.66;5244382;28;20505;-47
2022/01/13 01:17:30;;;;;;;170.40;27.95;;;;;;;6.81;69.66;104172.47;5247144;28;20486;-47
2022/01/13 01:20:07;;;;;;;189.35;28.75;;;;;;;6.79;69.59;104159.41;5247553;28;20406;-49
2022/01/13 01:22:59;;;;;;;167.60;26.90;;;;;;;6.79;69.60;104159.41;5248561;28;20437;-46
2022/01/13 01:25:43;;;;;;;192.27;27.35;;;;;;;6.76;69.72;104163.88;5244160;28;20775;-48
2022/01/13 01:28:24;;;;;;;176.88;26.77;;;;;;;6.79;69.58;104163.78;5247354;28;20538;-45
2022/01/13 01:30:57;;;;;;;193.32;27.38;;;;;;;6.81;69.64;104161.97;5247717;28;20413;-45
2022/01/13 01:33:29;;;;;;;182.52;27.63;;;;;;;6.81;69.77;104157.56;5245978;28;20390;-44
2022/01/13 01:36:03;;;;;;;146.80;24.95;;;;;;;6.82;69.68;104154.06;5244016;28;20429;-44
2022/01/13 01:38:35;;;;;;;164.68;25.63;;;;;;;6.82;69.65;104154.06;5238906;28;20904;-44
2022/01/13 01:41:08;;;;;;;159.02;25.10;;;;;;;6.85;69.52;104156.59;5242686;28;20416;-55
2022/01/13 01:43:41;;;;;;;159.88;25.48;;;;;;;6.84;69.56;104149.59;5248041;28;20410;-48
2022/01/13 01:46:14;;;;;;;152.90;23.65;;;;;;;6.85;69.61;104143.44;5244264;28;20833;-44
2022/01/13 01:48:46;;;;;;;139.85;25.70;;;;;;;6.86;69.74;104147.78;5241715;28;20417;-44
2022/01/13 01:51:18;;;;;;;161.95;24.35;;;;;;;6.87;69.64;104141.63;5241961;28;20410;-48
2022/01/13 01:53:51;;;;;;;132.18;24.67;;;;;;;6.87;69.61;104136.38;5244364;28;20958;-48
2022/01/13 01:56:23;;;;;;;147.27;24.40;;;;;;;6.85;69.73;104138.19;5247765;28;20416;-44
2022/01/13 01:59:01;;;;;;;148.38;24.98;;;;;;;6.79;69.80;104130.50;5241709;28;20432;-44
2022/01/13 02:01:34;;;;;;;196.40;28.63;;;;;;;6.79;69.80;104129.63;5241442;28;20437;-47
2022/01/13 02:04:06;;;;;;;186.57;28.13;;;;;;;6.76;69.83;104119.22;5250187;28;20414;-44
2022/01/13 02:06:39;;;;;;;180.32;28.75;;;;;;;6.85;69.66;104127.69;5240346;28;20518;-47
2022/01/13 02:09:16;;;;;;;169.48;26.88;;;;;;;6.86;69.65;104118.91;5245312;28;20916;-45
2022/01/13 02:11:54;;;;;;;157.32;26.27;;;;;;;6.82;69.71;104117.28;5243571;28;20959;-47
2022/01/13 02:14:36;;;;;;;209.45;28.65;;;;;;;6.80;69.75;104110.34;5241664;28;20417;-45
2022/01/13 02:17:14;;;;;;;166.18;26.25;;;;;;;6.82;69.95;104106.75;5246995;28;20493;-45
2022/01/13 02:19:47;;;;;;;168.07;28.95;;;;;;;6.83;69.83;104108.47;5246600;28;20429;-45
2022/01/13 02:22:21;;;;;;;186.43;28.55;;;;;;;6.86;69.76;104116.25;5244930;28;20390;-46
2022/01/13 02:24:54;;;;;;;175.35;25.92;;;;;;;6.84;69.81;104114.59;5249783;28;20413;-44
2022/01/13 02:27:26;;;;;;;185.35;28.48;;;;;;;6.87;69.85;104115.34;5240995;28;20415;-44
2022/01/13 02:29:59;;;;;;;188.75;27.40;;;;;;;6.86;69.67;104108.38;5240559;28;20400;-44
2022/01/13 02:32:31;;;;;;;160.10;26.55;;;;;;;6.88;69.68;104105.72;5244940;28;20913;-52
2022/01/13 02:35:04;;;;;;;222.95;30.27;;;;;;;6.88;69.85;104108.34;5242858;28;20415;-44
2022/01/13 02:37:37;;;;;;;172.10;27.45;;;;;;;6.88;69.75;104106.59;5236403;28;20780;-48
2022/01/13 02:40:12;;;;;;;187.75;29.27;;;;;;;6.88;69.81;104106.59;5245594;28;20406;-44
2022/01/13 02:42:44;;;;;;;175.45;26.33;;;;;;;6.86;69.77;104100.50;5236495;28;20426;-45
2022/01/13 02:45:20;;;;;;;189.05;29.17;;;;;;;6.86;69.93;104108.38;5241868;28;20495;-44
2022/01/13 02:48:12;;;;;;;207.95;30.20;;;;;;;6.85;69.72;104106.69;5240200;28;20767;-44
2022/01/13 02:50:45;;;;;;;204.25;29.75;;;;;;;6.89;69.82;104108.28;5244346;28;21076;-45
2022/01/13 02:53:18;;;;;;;205.60;29.00;;;;;;;6.90;69.87;104109.16;5244197;28;20428;-44
2022/01/13 02:55:54;;;;;;;222.13;30.33;;;;;;;6.90;69.77;104114.41;5244696;28;20412;-45
2022/01/13 02:58:27;;;;;;;214.43;30.17;;;;;;;6.91;69.74;104116.16;5245914;28;20433;-45
2022/01/13 03:01:00;;;;;;;243.93;31.90;;;;;;;6.90;69.77;104112.63;5235491;28;20886;-45
2022/01/13 03:03:34;;;;;;;192.45;27.50;;;;;;;6.92;69.85;104112.59;5243585;28;20903;-45
2022/01/13 03:06:08;;;;;;;199.00;30.33;;;;;;;6.89;69.82;104108.28;5244451;28;20875;-48
2022/01/13 03:08:47;;;;;;;205.82;30.10;;;;;;;6.90;69.66;104103.91;5240399;28;20425;-44
2022/01/13 03:11:19;;;;;;;199.38;28.75;;;;;;;6.92;69.93;104109.97;5245703;28;20402;-47
2022/01/13 03:13:52;;;;;;;235.02;31.90;;;;;;;6.91;69.92;104106.50;5237776;28;20420;-44
2022/01/13 03:16:24;;;;;;;254.82;32.13;;;;;;;6.87;69.96;104101.34;5238150;28;20411;-44
2022/01/13 03:18:57;;;;;;;235.13;31.42;;;;;;;6.86;69.90;104092.63;5243650;28;21023;-44
2022/01/13 03:21:29;;;;;;;262.15;31.08;;;;;;;6.80;70.07;104082.28;5240578;28;20753;-48
2022/01/13 03:24:06;;;;;;;238.73;30.77;;;;;;;6.82;70.02;104080.50;5247210;28;20412;-44
2022/01/13 03:26:39;;;;;;;230.35;30.92;;;;;;;6.72;70.16;104072.91;5240176;28;20435;-44
2022/01/13 03:29:20;;;;;;;258.02;32.60;;;;;;;6.76;70.15;104085.94;5246073;28;20413;-45
2022/01/13 03:31:53;;;;;;;229.37;32.77;;;;;;;6.77;70.22;104087.63;5242288;28;20472;-45
2022/01/13 03:34:25;;;;;;;247.57;32.50;;;;;;;6.78;70.13;104088.50;5245846;28;20500;-44
2022/01/13 03:36:58;;;;;;;218.10;32.15;;;;;;;6.71;70.27;104064.19;5238990;28;20408;-45
2022/01/13 03:39:32;;;;;;;264.60;35.25;;;;;;;6.69;70.09;104061.59;5236185;28;20410;-45
2022/01/13 03:42:05;;;;;;;293.00;34.80;;;;;;;6.82;70.11;104077.88;5249769;28;20410;-44
2022/01/13 03:44:37;;;;;;;281.67;38.53;;;;;;;6.87;70.06;104068.06;5241925;28;20416;-47
2022/01/13 03:47:10;;;;;;;324.17;39.35;;;;;;;6.90;69.86;104067.09;5246695;28;20421;-45
2022/01/13 03:49:43;;;;;;;275.70;38.63;;;;;;;6.91;69.87;104069.72;5242662;28;20410;-45
2022/01/13 03:53:10;;;;;;;264.50;37.60;;;;;;;6.89;70.04;104066.25;5245456;28;20416;-43
2022/01/13 03:56:48;;;;;;;312.88;39.95;;;;;;;6.87;70.12;104062.81;5239268;28;20756;-45
2022/01/13 04:00:07;;;;;;;282.42;40.10;;;;;;;6.87;70.22;104054.91;5243672;28;20888;-46
2022/01/13 04:02:39;;;;;;;337.73;43.85;;;;;;;6.86;70.31;104054.97;5241095;28;20424;-45
2022/01/13 04:05:11;;;;;;;321.85;42.03;;;;;;;6.89;70.16;104058.38;5248818;28;20409;-45
2022/01/13 04:07:44;;;;;;;292.83;43.13;;;;;;;6.93;70.11;104057.34;5242494;28;20419;-46
2022/01/13 04:11:15;;;;;;;337.10;46.05;;;;;;;6.99;70.09;104050.22;5250113;28;20414;-45
2022/01/13 04:13:53;;;;;;;338.52;46.30;;;;;;;6.98;70.07;104048.50;5240255;28;20406;-47
2022/01/13 04:16:31;;;;;;;343.55;46.05;;;;;;;6.97;70.17;104046.75;5248266;28;20771;-45
2022/01/13 04:19:07;;;;;;;341.00;47.20;;;;;;;6.98;70.20;104056.38;5242090;28;20496;-44
2022/01/13 04:21:40;;;;;;;324.33;46.37;;;;;;;7.02;70.16;104050.13;5251174;28;20425;-44
2022/01/13 04:24:13;;;;;;;335.13;48.33;;;;;;;7.03;70.11;104043.94;5249455;28;20414;-46
2022/01/13 04:26:45;;;;;;;339.33;49.63;;;;;;;7.03;70.23;104057.06;5248828;28;20420;-46
2022/01/13 04:29:27;;;;;;;363.02;50.88;;;;;;;7.04;70.09;104045.69;5246169;28;20434;-43
2022/01/13 04:32:01;;;;;;;355.77;48.63;;;;;;;7.04;70.20;104048.31;5248241;28;20421;-45
2022/01/13 04:34:33;;;;;;;334.83;49.30;;;;;;;7.03;70.24;104047.44;5248383;28;20758;-48
2022/01/13 04:37:06;;;;;;;361.92;49.88;;;;;;;7.04;70.25;104049.16;5248282;28;20410;-44
2022/01/13 04:39:38;;;;;;;428.52;53.97;;;;;;;7.05;70.32;104052.66;5243035;28;20408;-44
2022/01/13 04:42:12;;;;;;;346.73;50.10;;;;;;;7.06;70.16;104051.72;5246999;28;20410;-45
2022/01/13 04:44:45;;;;;;;357.55;51.15;;;;;;;7.04;70.28;104050.94;5245670;28;20943;-44
2022/01/13 04:47:18;;;;;;;390.20;53.43;;;;;;;7.05;70.31;104052.66;5242437;28;20537;-45
2022/01/13 04:49:51;;;;;;;401.33;53.78;;;;;;;7.06;70.39;104056.97;5241400;28;20395;-45
2022/01/13 04:52:23;;;;;;;492.42;58.85;;;;;;;7.09;70.39;104051.63;5243699;28;20408;-44
2022/01/13 04:54:56;;;;;;;384.30;52.67;;;;;;;7.11;70.36;104049.81;5244543;28;20424;-45
2022/01/13 04:57:28;;;;;;;430.95;53.08;;;;;;;7.14;70.29;104054.97;5247930;28;20505;-45
2022/01/13 05:00:00;;;;;;;398.80;53.13;;;;;;;7.18;70.23;104045.22;5246416;28;20409;-44
2022/01/13 05:02:34;;;;;;;380.13;52.03;;;;;;;7.20;70.25;104052.16;5251285;28;20406;-44
2022/01/13 05:05:07;;;;;;;389.00;51.25;;;;;;;7.24;70.15;104056.41;5250458;28;20785;-44
2022/01/13 05:07:40;;;;;;;380.70;53.70;;;;;;;6.91;70.09;104006.66;5241480;28;20423;-46
2022/01/13 05:10:12;;;;;;;387.35;53.70;;;;;;;7.28;70.24;104065.94;5244955;28;20461;-45
2022/01/13 05:12:46;;;;;;;402.17;53.67;;;;;;;7.27;70.19;104061.56;5245162;28;20907;-45
2022/01/13 05:15:22;;;;;;;375.30;50.40;;;;;;;7.29;70.17;104059.75;5248657;28;20395;-46
2022/01/13 05:18:12;;;;;;;441.15;55.65;;;;;;;7.32;70.17;104072.81;5249031;28;20402;-44
2022/01/13 05:20:49;;;;;;;402.52;53.42;;;;;;;7.35;70.01;104077.97;5249498;28;20410;-47
2022/01/13 05:23:21;;;;;;;393.15;54.47;;;;;;;7.37;70.13;104083.16;5238784;28;20406;-44
2022/01/13 05:25:54;;;;;;;462.93;56.47;;;;;;;7.38;70.07;104091.00;5238003;28;20414;-44
2022/01/13 05:28:26;;;;;;;404.88;55.92;;;;;;;7.39;70.08;104087.47;5240621;28;20494;-45
2022/01/13 05:30:58;;;;;;;451.75;56.28;;;;;;;7.43;70.08;104095.25;5244975;28;20394;-49
2022/01/13 05:33:32;;;;;;;439.83;57.60;;;;;;;7.41;70.17;104092.69;5245959;28;20421;-46
2022/01/13 05:36:05;;;;;;;423.00;57.03;;;;;;;7.45;70.06;104096.06;5249134;28;20418;-47
2022/01/13 05:38:38;;;;;;;472.60;59.80;;;;;;;7.48;70.07;104086.31;5246907;28;20488;-45
2022/01/13 05:41:11;;;;;;;438.80;57.43;;;;;;;7.42;70.13;104075.13;5250995;28;20394;-48
2022/01/13 05:43:43;;;;;;;482.08;59.88;;;;;;;7.51;70.05;104086.22;5247485;28;20874;-44
2022/01/13 05:46:15;;;;;;;458.58;60.03;;;;;;;7.54;70.08;104085.25;5248582;28;20422;-44
2022/01/13 05:48:49;;;;;;;502.85;62.70;;;;;;;7.46;70.07;104069.72;5246592;28;20436;-51
2022/01/13 05:51:21;;;;;;;456.90;60.00;;;;;;;7.47;70.19;104073.22;5250798;28;20438;-44
2022/01/13 05:53:54;;;;;;;448.13;57.58;;;;;;;7.54;70.13;104082.63;5250028;28;20394;-44
2022/01/13 05:56:26;;;;;;;427.50;59.08;;;;;;;7.51;70.13;104080.09;5243712;28;20406;-46
2022/01/13 05:58:58;;;;;;;504.05;62.97;;;;;;;7.54;70.14;104080.84;5241271;28;20429;-44
2022/01/13 06:01:30;;;;;;;410.42;57.05;;;;;;;7.53;70.26;104073.88;5244696;28;20424;-45
2022/01/13 06:04:04;;;;;;;418.65;57.17;;;;;;;7.48;70.23;104073.16;5247455;28;20414;-43
2022/01/13 06:06:37;;;;;;;386.45;57.60;;;;;;;7.47;70.17;104078.50;5240084;28;20410;-45
2022/01/13 06:09:09;;;;;;;471.58;60.85;;;;;;;7.44;70.37;104073.34;5242734;28;20691;-46
2022/01/13 06:11:51;;;;;;;419.63;58.13;;;;;;;7.48;70.25;104080.19;5244898;28;20792;-44
2022/01/13 06:14:23;;;;;;;451.25;60.40;;;;;;;7.50;70.25;104068.72;5243893;28;20441;-44
2022/01/13 06:16:56;;;;;;;359.85;55.63;;;;;;;7.51;70.07;104069.56;5246996;28;20466;-45
2022/01/13 06:19:29;;;;;;;377.37;57.57;;;;;;;7.49;70.33;104069.63;5246922;28;20841;-45
2022/01/13 06:22:02;;;;;;;385.52;58.95;;;;;;;7.53;70.31;104068.63;5245102;28;20409;-45
2022/01/13 06:24:59;;;;;;;418.50;59.42;;;;;;;7.55;70.29;104072.03;5240601;28;20421;-47
2022/01/13 06:27:31;;;;;;;390.98;57.88;;;;;;;7.57;70.29;104069.38;5236509;28;21079;-45
2022/01/13 06:30:07;;;;;;;398.03;55.97;;;;;;;7.59;70.11;104070.19;5246219;28;20418;-45
2022/01/13 06:32:40;;;;;;;285.55;48.33;;;;;;;7.63;70.20;104074.44;5252526;28;20481;-46
2022/01/13 06:35:14;;;;;;;304.02;48.60;;;;;;;7.64;70.22;104073.50;5250505;28;20759;-44
2022/01/13 06:37:47;;;;;;;341.67;51.38;;;;;;;7.61;70.30;104065.72;5243227;28;20419;-44
2022/01/13 06:40:19;;;;;;;326.65;51.78;;;;;;;7.66;70.27;104074.34;5245799;28;20405;-45
2022/01/13 06:42:51;;;;;;;327.10;50.00;;;;;;;7.67;70.22;104075.19;5248569;28;20770;-43
2022/01/13 06:45:24;;;;;;;375.37;53.70;;;;;;;7.69;70.25;104079.50;5251559;28;20451;-44
2022/01/13 06:47:56;;;;;;;325.85;49.25;;;;;;;7.72;70.23;104074.13;5244114;28;20434;-44
2022/01/13 06:50:30;;;;;;;353.48;52.45;;;;;;;7.69;70.35;104066.34;5230550;28;20412;-46
2022/01/13 06:53:03;;;;;;;362.17;51.45;;;;;;;7.72;70.38;104065.38;5246421;28;20417;-50
2022/01/13 06:55:35;;;;;;;351.13;49.88;;;;;;;7.74;70.32;104066.16;5244797;28;20488;-46
2022/01/13 06:58:07;;;;;;;322.55;50.33;;;;;;;7.72;70.19;104063.59;5245295;28;20410;-47
2022/01/13 07:00:40;;;;;;;350.15;52.15;;;;;;;7.71;70.25;104063.63;5250515;28;20412;-44
2022/01/13 07:03:13;;;;;;;355.48;54.00;;;;;;;7.72;70.28;104068.88;5246265;28;20418;-45
2022/01/13 07:05:46;;;;;;;345.58;48.30;;;;;;;7.72;70.14;104068.88;5250213;28;20501;-45
2022/01/13 07:08:19;;;;;;;315.63;49.03;;;;;;;7.73;70.32;104061.81;5251309;28;20494;-45
2022/01/13 07:10:51;;;;;;;258.77;47.20;;;;;;;7.74;70.44;104072.31;5249595;28;20405;-43
2022/01/13 07:13:23;;;;;;;338.48;53.00;;;;;;;7.75;70.30;104071.38;5251085;28;20413;-44
2022/01/13 07:15:57;;;;;;;391.02;54.22;;;;;;;7.79;70.31;104065.09;5251669;28;20420;-44
2022/01/13 07:18:38;;;;;;;323.38;51.50;;;;;;;7.83;70.28;104066.75;5250051;28;20406;-46
2022/01/13 07:21:12;;;;;;;327.98;49.08;;;;;;;7.83;70.27;104072.00;5246785;28;20557;-48
2022/01/13 07:23:45;;;;;;;367.75;50.20;;;;;;;7.84;70.27;104071.09;5250582;28;20683;-46
2022/01/13 07:26:17;;;;;;;288.67;44.00;;;;;;;7.84;70.36;104073.72;5230750;28;20770;-46
2022/01/13 07:28:49;;;;;;;323.85;51.40;;;;;;;7.83;70.29;104079.00;5231469;28;20422;-46
2022/01/13 07:31:22;;;;;;;304.33;49.22;;;;;;;7.80;70.32;104077.38;5231896;28;20400;-45
2022/01/13 07:33:54;;;;;;;309.02;47.95;;;;;;;7.81;70.46;104079.06;5243993;28;20393;-47
2022/01/13 07:36:28;;;;;;;350.90;51.00;;;;;;;7.81;70.50;104084.34;5251233;28;20465;-44
2022/01/13 07:39:01;;;;;;;307.80;48.60;;;;;;;7.83;70.35;104090.41;5250361;28;20747;-45
2022/01/13 07:41:33;;;;;;;362.58;50.35;;;;;;;7.86;70.38;104092.06;5254618;28;20418;-46
2022/01/13 07:44:07;;;;;;;333.58;49.80;;;;;;;7.88;70.36;104094.66;5256424;28;20390;-44
2022/01/13 07:46:39;;;;;;;293.73;46.13;;;;;;;7.89;70.42;104091.09;5256184;28;20409;-45
2022/01/13 07:49:11;;;;;;;285.15;46.97;;;;;;;7.92;70.36;104096.25;5254285;28;20414;-44
2022/01/13 07:51:45;;;;;;;283.88;47.58;;;;;;;7.93;70.40;104087.44;5250059;28;20502;-46
2022/01/13 07:54:17;;;;;;;303.48;46.70;;;;;;;7.95;70.33;104097.00;5252863;28;20422;-46
2022/01/13 07:56:50;;;;;;;311.67;49.38;;;;;;;7.96;70.42;104095.22;5251652;28;20408;-44
2022/01/13 07:59:27;;;;;;;261.05;48.30;;;;;;;7.95;70.40;104102.28;5248714;28;20404;-44
2022/01/13 08:02:00;;;;;;;280.33;46.90;;;;;;;7.94;70.47;104095.31;5250766;28;20433;-45
2022/01/13 08:04:33;;;;;;;275.95;45.40;;;;;;;7.96;70.44;104093.50;5250774;28;20446;-43
2022/01/13 08:07:06;;;;;;;276.93;47.10;;;;;;;7.97;70.43;104089.09;5253246;28;20410;-47
2022/01/13 08:09:39;;;;;;;291.25;45.13;;;;;;;8.00;70.43;104096.88;5249434;28;20436;-44
2022/01/13 08:12:11;;;;;;;279.00;45.15;;;;;;;8.02;70.49;104092.38;5250948;28;20408;-43
2022/01/13 08:14:44;;;;;;;286.77;46.03;;;;;;;8.04;70.40;104099.31;5251140;28;20596;-44
2022/01/13 08:19:45;;;;;;;273.40;48.22;;;;;;;8.01;70.42;104096.81;5254246;28;20413;-45
2022/01/13 08:20:11;;;;;;;257.77;47.22;;;;;;;8.06;70.49;104101.94;5243700;28;20420;-45
2022/01/13 08:22:45;;;;;;;252.75;42.42;;;;;;;8.06;70.50;104099.28;5233218;28;20415;-45
2022/01/13 08:25:18;;;;;;;261.25;44.35;;;;;;;8.09;70.37;104092.13;5234397;28;20901;-44
2022/01/13 08:27:50;;;;;;;232.07;37.88;;;;;;;8.11;70.46;104089.44;5235726;28;20404;-44
2022/01/13 08:30:24;;;;;;;269.35;43.30;;;;;;;8.12;70.44;104096.44;5245583;28;20685;-44
2022/01/13 08:32:56;;;;;;;248.50;43.53;;;;;;;8.14;70.35;104094.59;5234457;28;20479;-45
2022/01/13 08:35:28;;;;;;;247.98;42.03;;;;;;;8.16;70.32;104099.81;5239606;28;20399;-47
2022/01/13 08:38:07;;;;;;;237.40;42.00;;;;;;;8.14;70.39;104097.22;5250297;28;20398;-46
2022/01/13 08:40:40;;;;;;;242.73;42.78;;;;;;;8.17;70.52;104106.81;5255293;28;20517;-45
2022/01/13 08:43:12;;;;;;;254.43;43.95;;;;;;;8.19;70.52;104110.25;5254396;28;20410;-45
2022/01/13 08:45:45;;;;;;;230.88;41.70;;;;;;;8.21;70.48;104111.91;5245516;28;20414;-45
2022/01/13 08:48:17;;;;;;;231.60;44.22;;;;;;;8.23;70.34;104110.06;5234812;28;20752;-45
2022/01/13 08:50:50;;;;;;;206.77;40.60;;;;;;;8.25;70.47;104110.88;5233996;28;20543;-45
2022/01/13 08:53:24;;;;;;;194.13;40.47;;;;;;;8.28;70.46;104110.78;5245908;28;20402;-45
2022/01/13 08:55:58;;;;;;;200.45;40.55;;;;;;;8.29;70.50;104107.22;5254125;28;20416;-48
2022/01/13 08:58:30;;;;;;;213.82;42.90;;;;;;;8.33;70.51;104113.25;5250560;28;20406;-44
2022/01/13 09:01:03;;;;;;;194.23;40.13;;;;;;;8.33;70.42;104113.25;5250482;28;20413;-46
2022/01/13 09:03:35;;;;;;;206.52;42.70;;;;;;;8.31;70.35;104110.66;5244399;28;20779;-46
2022/01/13 09:06:08;;;;;;;211.27;41.97;;;;;;;8.34;70.58;104108.84;5250173;28;20506;-46
2022/01/13 09:08:42;;;;;;;198.90;44.20;;;;;;;8.31;70.58;104100.13;5247404;28;20401;-44
2022/01/13 09:11:15;;;;;;;207.90;44.13;;;;;;;8.38;70.59;104097.28;5253228;28;20410;-45
2022/01/13 09:13:47;;;;;;;205.45;43.53;;;;;;;8.43;70.45;104104.13;5247045;28;20412;-44
2022/01/13 09:16:19;;;;;;;201.50;45.28;;;;;;;8.45;70.52;104101.44;5250340;28;20414;-44
2022/01/13 09:19:11;;;;;;;190.15;44.80;;;;;;;8.48;70.62;104101.31;5247804;28;20414;-45
2022/01/13 09:21:45;;;;;;;179.20;45.40;;;;;;;8.52;70.47;104095.91;5248683;28;20424;-45
2022/01/13 09:24:21;;;;;;;186.27;45.17;;;;;;;8.57;70.53;104111.53;5249775;28;20422;-46
2022/01/13 09:26:54;;;;;;;183.27;44.97;;;;;;;8.56;70.60;104099.28;5248131;28;20412;-45
2022/01/13 09:29:28;;;;;;;186.88;44.65;;;;;;;8.56;70.57;104099.28;5250896;28;20479;-45
2022/01/13 09:32:00;;;;;;;185.98;47.03;;;;;;;8.61;70.64;104099.09;5249064;28;20486;-50
2022/01/13 09:34:33;;;;;;;188.07;47.15;;;;;;;8.60;70.66;104089.47;5248521;28;20416;-44
2022/01/13 09:37:05;;;;;;;196.77;47.10;;;;;;;8.68;70.54;104104.09;5243844;28;20406;-46
2022/01/13 09:39:39;;;;;;;180.40;46.00;;;;;;;8.78;70.58;104094.06;5252396;28;20406;-44
2022/01/13 09:42:12;;;;;;;166.15;46.42;;;;;;;8.81;70.50;104093.09;5250152;28;20410;-44
2022/01/13 09:44:47;;;;;;;179.15;45.92;;;;;;;8.82;70.65;104087.75;5252187;28;20707;-43
2022/01/13 09:47:19;;;;;;;155.07;46.08;;;;;;;8.87;70.54;104085.81;5251615;28;29825;-44
2022/01/13 09:49:52;;;;;;;144.68;44.40;;;;;;;8.89;70.53;104088.41;5252056;28;20413;-44
2022/01/13 09:52:24;;;;;;;139.85;46.05;;;;;;;8.95;70.60;104094.28;5252366;28;20394;-45
2022/01/13 09:54:58;;;;;;;142.75;47.05;;;;;;;9.01;70.39;104090.53;5244963;28;20401;-46
2022/01/13 09:57:30;;;;;;;139.15;44.63;;;;;;;9.02;70.55;104096.69;5245953;28;20414;-46
2022/01/13 10:00:05;;;;;;;125.60;43.67;;;;;;;9.06;70.54;104099.13;5251456;28;20412;-44
2022/01/13 10:02:37;;;;;;;135.50;43.38;;;;;;;9.09;70.40;104099.00;5242492;28;20882;-45
2022/01/13 10:05:10;;;;;;;122.60;39.97;;;;;;;9.10;70.42;104100.72;5231296;28;20426;-48
2022/01/13 10:07:45;;;;;;;128.23;42.92;;;;;;;9.09;70.44;104109.56;5245408;28;20432;-45
2022/01/13 10:10:24;;;;;;;122.13;40.85;;;;;;;9.07;70.64;104105.25;5252171;28;20421;-45
2022/01/13 10:13:08;;;;;;;128.10;42.97;;;;;;;9.09;70.55;104101.66;5242650;28;20423;-45
2022/01/13 10:18:43;;;;;;;126.95;42.88;;;;;;;9.11;70.75;104097.19;5247561;28;20477;-44
2022/01/13 10:21:19;;;;;;;110.18;40.72;;;;;;;9.16;70.67;104100.47;5253664;28;20776;-44
2022/01/13 10:24:09;;;;;;;110.30;40.20;;;;;;;9.20;70.65;104107.38;5253603;28;20402;-44
2022/01/13 10:27:01;;;;;;;104.75;40.88;;;;;;;9.22;70.45;104100.22;5252294;28;20532;-43
2022/01/13 10:29:43;;;;;;;107.63;39.92;;;;;;;9.26;70.58;104092.19;5246800;28;20402;-44
2022/01/13 10:32:18;;;;;;;120.43;40.10;;;;;;;9.25;70.57;104099.25;5232492;28;20426;-45
2022/01/13 10:34:57;;;;;;;98.53;37.55;;;;;;;9.25;70.59;104093.97;5244224;28;20455;-45
2022/01/13 10:37:33;;;;;;;115.32;40.60;;;;;;;9.27;70.68;104104.50;5247217;28;20409;-47
2022/01/13 10:40:10;;;;;;;120.50;39.42;;;;;;;9.27;70.91;104104.50;5246451;28;20411;-46
2022/01/13 10:45:48;;;;;;;97.03;33.55;;;;;;;9.26;70.71;104100.09;5243741;28;20417;-44
2022/01/13 10:48:23;;;;;;;101.87;36.87;;;;;;;9.24;70.79;104092.28;5245252;28;20535;-44
2022/01/13 10:50:58;;;;;;;106.43;38.80;;;;;;;9.27;70.62;104092.16;5251458;28;20410;-44
2022/01/13 10:53:34;;;;;;;98.45;39.47;;;;;;;9.30;70.78;104089.41;5250170;28;20386;-44
2022/01/13 10:56:09;;;;;;;98.28;41.72;;;;;;;9.35;70.59;104089.19;5247118;28;20428;-44
2022/01/13 10:58:52;;;;;;;100.05;39.28;;;;;;;9.39;70.62;104090.81;5237779;28;20479;-45
2022/01/13 11:01:35;;;;;;;91.60;36.53;;;;;;;9.39;70.55;104086.38;5247511;28;20413;-44
2022/01/13 11:04:16;;;;;;;87.22;37.70;;;;;;;9.42;70.68;104082.78;5238008;28;20901;-44
2022/01/13 11:06:48;;;;;;;89.13;37.80;;;;;;;9.44;70.76;104086.19;5244001;28;20898;-44
2022/01/13 11:09:24;;;;;;;90.72;37.58;;;;;;;9.45;70.58;104085.28;5248469;28;20417;-47
2022/01/13 11:11:59;;;;;;;91.72;38.95;;;;;;;9.47;70.76;104078.13;5250404;28;20453;-45
2022/01/13 11:14:40;;;;;;;81.78;35.13;;;;;;;9.47;70.76;104078.13;5252035;28;20931;-45
2022/01/13 11:17:12;;;;;;;83.88;35.55;;;;;;;9.38;70.89;104079.41;5252909;28;20920;-44
2022/01/13 11:19:49;;;;;;;86.55;35.38;;;;;;;9.43;70.82;104073.91;5255100;28;20405;-44
2022/01/13 11:22:23;;;;;;;71.83;34.33;;;;;;;9.47;70.78;104073.72;5255216;28;20389;-45
2022/01/13 11:24:57;;;;;;;65.75;30.20;;;;;;;9.46;70.70;104065.88;5250376;28;20409;-43
2022/01/13 11:27:29;;;;;;;70.13;33.05;;;;;;;9.43;70.83;104068.66;5249536;28;20428;-50
2022/01/13 11:30:07;;;;;;;69.28;34.40;;;;;;;9.45;70.93;104067.66;5244435;28;20406;-50
2022/01/13 11:32:41;;;;;;;71.45;33.85;;;;;;;9.47;70.94;104062.31;5250199;28;20394;-43
2022/01/13 11:35:19;;;;;;;73.78;32.90;;;;;;;9.51;70.85;104069.19;5251668;28;20407;-46
2022/01/13 11:37:52;;;;;;;73.78;33.20;;;;;;;9.52;70.97;104060.34;5249728;28;20411;-44
2022/01/13 11:40:43;;;;;;;65.15;30.95;;;;;;;9.54;70.88;104060.28;5255824;28;20778;-48
2022/01/13 11:43:29;;;;;;;70.00;33.55;;;;;;;9.51;70.91;104058.66;5250180;28;20417;-45
2022/01/13 11:46:18;;;;;;;74.40;32.13;;;;;;;9.51;71.06;104053.38;5251412;28;20406;-48
2022/01/13 11:49:09;;;;;;;73.70;30.70;;;;;;;9.52;71.01;104063.00;5249719;28;20417;-45
2022/01/13 11:51:45;;;;;;;71.28;32.95;;;;;;;9.49;71.04;104049.94;5249943;28;20477;-45
2022/01/13 11:54:31;;;;;;;74.25;32.75;;;;;;;9.50;70.91;104051.63;5246041;28;20416;-46
2022/01/13 11:57:16;;;;;;;69.03;33.50;;;;;;;9.54;70.99;104053.25;5248446;28;20473;-43